sensor_id;sensor_type;location;lat;lon;timestamp;P1;durP1;ratioP1;P2;durP2;ratioP2
703;SDS011;335;48.694;9.120;2022-10-16T00:01:11;1.50;;;1.50;;
703;SDS011;335;48.694;9.120;2022-10-16T00:03:38;1.90;;;1.43;;
703;SDS011;335;48.694;9.120;2022-10-16T00:06:04;1.30;;;1.20;;
703;SDS011;335;48.694;9.120;2022-10-16T00:08:30;1.90;;;1.57;;
703;SDS011;335;48.694;9.120;2022-10-16T00:11:03;3.47;;;1.67;;
703;SDS011;335;48.694;9.120;2022-10-16T00:13:30;3.70;;;1.20;;
703;SDS011;335;48.694;9.120;2022-10-16T00:15:58;1.10;;;1.10;;
703;SDS011;335;48.694;9.120;2022-10-16T00:18:24;1.83;;;1.70;;
703;SDS011;335;48.694;9.120;2022-10-16T00:20:50;1.60;;;1.50;;
703;SDS011;335;48.694;9.120;2022-10-16T00:23:16;1.30;;;1.30;;
703;SDS011;335;48.694;9.120;2022-10-16T00:25:41;1.20;;;1.20;;
703;SDS011;335;48.694;9.120;2022-10-16T00:28:06;1.40;;;1.30;;
703;SDS011;335;48.694;9.120;2022-10-16T00:30:32;1.23;;;1.13;;
703;SDS011;335;48.694;9.120;2022-10-16T00:32:57;1.50;;;1.40;;
703;SDS011;335;48.694;9.120;2022-10-16T00:35:22;1.43;;;1.33;;
703;SDS011;335;48.694;9.120;2022-10-16T00:37:48;4.30;;;2.10;;
703;SDS011;335;48.694;9.120;2022-10-16T00:40:13;2.77;;;2.20;;
703;SDS011;335;48.694;9.120;2022-10-16T00:42:39;2.30;;;2.10;;
703;SDS011;335;48.694;9.120;2022-10-16T00:45:04;2.47;;;2.30;;
703;SDS011;335;48.694;9.120;2022-10-16T00:47:31;3.40;;;1.77;;
703;SDS011;335;48.694;9.120;2022-10-16T00:50:00;1.60;;;1.50;;
703;SDS011;335;48.694;9.120;2022-10-16T00:52:50;2.00;;;1.73;;
703;SDS011;335;48.694;9.120;2022-10-16T00:55:16;1.50;;;1.50;;
703;SDS011;335;48.694;9.120;2022-10-16T00:57:42;1.57;;;1.47;;
703;SDS011;335;48.694;9.120;2022-10-16T01:00:09;1.67;;;1.50;;
703;SDS011;335;48.694;9.120;2022-10-16T01:02:36;3.30;;;1.47;;
703;SDS011;335;48.694;9.120;2022-10-16T01:05:01;3.40;;;1.70;;
703;SDS011;335;48.694;9.120;2022-10-16T01:07:35;4.10;;;1.50;;
703;SDS011;335;48.694;9.120;2022-10-16T01:17:55;1.77;;;1.13;;
703;SDS011;335;48.694;9.120;2022-10-16T01:20:30;1.40;;;1.30;;
703;SDS011;335;48.694;9.120;2022-10-16T01:23:00;1.30;;;1.20;;
703;SDS011;335;48.694;9.120;2022-10-16T01:26:30;6.33;;;1.27;;
703;SDS011;335;48.694;9.120;2022-10-16T01:31:17;1.10;;;1.10;;
703;SDS011;335;48.694;9.120;2022-10-16T01:33:48;1.00;;;1.00;;
703;SDS011;335;48.694;9.120;2022-10-16T01:36:31;1.80;;;1.50;;
703;SDS011;335;48.694;9.120;2022-10-16T01:39:01;1.33;;;1.30;;
703;SDS011;335;48.694;9.120;2022-10-16T01:41:33;1.80;;;1.40;;
703;SDS011;335;48.694;9.120;2022-10-16T01:44:19;2.37;;;2.17;;
703;SDS011;335;48.694;9.120;2022-10-16T01:46:47;1.93;;;1.70;;
703;SDS011;335;48.694;9.120;2022-10-16T01:49:14;2.23;;;2.03;;
703;SDS011;335;48.694;9.120;2022-10-16T01:51:41;1.97;;;1.70;;
703;SDS011;335;48.694;9.120;2022-10-16T01:54:08;1.93;;;1.70;;
703;SDS011;335;48.694;9.120;2022-10-16T01:56:34;2.00;;;1.90;;
703;SDS011;335;48.694;9.120;2022-10-16T01:59:01;1.50;;;1.50;;
703;SDS011;335;48.694;9.120;2022-10-16T02:01:42;2.47;;;2.27;;
703;SDS011;335;48.694;9.120;2022-10-16T02:06:56;3.67;;;1.80;;
703;SDS011;335;48.694;9.120;2022-10-16T02:09:22;1.77;;;1.67;;
703;SDS011;335;48.694;9.120;2022-10-16T02:11:47;1.37;;;1.27;;
703;SDS011;335;48.694;9.120;2022-10-16T02:14:14;4.20;;;2.13;;
703;SDS011;335;48.694;9.120;2022-10-16T02:16:44;1.77;;;1.67;;
703;SDS011;335;48.694;9.120;2022-10-16T02:19:11;7.07;;;1.90;;
703;SDS011;335;48.694;9.120;2022-10-16T02:24:08;1.57;;;1.40;;
703;SDS011;335;48.694;9.120;2022-10-16T02:26:48;1.27;;;1.17;;
703;SDS011;335;48.694;9.120;2022-10-16T02:29:19;1.70;;;1.20;;
703;SDS011;335;48.694;9.120;2022-10-16T02:31:48;1.20;;;1.20;;
703;SDS011;335;48.694;9.120;2022-10-16T02:34:16;2.80;;;1.40;;
703;SDS011;335;48.694;9.120;2022-10-16T02:36:43;1.00;;;1.00;;
703;SDS011;335;48.694;9.120;2022-10-16T02:39:09;1.80;;;1.00;;
703;SDS011;335;48.694;9.120;2022-10-16T02:41:35;1.33;;;1.23;;
703;SDS011;335;48.694;9.120;2022-10-16T02:44:01;1.33;;;1.00;;
703;SDS011;335;48.694;9.120;2022-10-16T02:46:26;1.40;;;1.30;;
703;SDS011;335;48.694;9.120;2022-10-16T02:48:51;1.23;;;1.07;;
703;SDS011;335;48.694;9.120;2022-10-16T02:51:17;2.93;;;1.40;;
703;SDS011;335;48.694;9.120;2022-10-16T02:53:42;1.13;;;1.03;;
703;SDS011;335;48.694;9.120;2022-10-16T02:56:07;1.83;;;1.20;;
703;SDS011;335;48.694;9.120;2022-10-16T02:58:33;1.10;;;1.10;;
703;SDS011;335;48.694;9.120;2022-10-16T03:00:58;1.10;;;1.10;;
703;SDS011;335;48.694;9.120;2022-10-16T03:03:23;2.23;;;0.90;;
703;SDS011;335;48.694;9.120;2022-10-16T03:05:49;1.87;;;1.10;;
703;SDS011;335;48.694;9.120;2022-10-16T03:08:14;1.80;;;0.97;;
703;SDS011;335;48.694;9.120;2022-10-16T03:10:39;3.70;;;1.20;;
703;SDS011;335;48.694;9.120;2022-10-16T03:13:05;1.47;;;1.10;;
703;SDS011;335;48.694;9.120;2022-10-16T03:15:30;1.10;;;1.10;;
703;SDS011;335;48.694;9.120;2022-10-16T03:17:58;1.53;;;1.43;;
703;SDS011;335;48.694;9.120;2022-10-16T03:20:24;1.90;;;1.80;;
703;SDS011;335;48.694;9.120;2022-10-16T03:22:50;1.00;;;1.00;;
703;SDS011;335;48.694;9.120;2022-10-16T03:25:15;3.53;;;1.10;;
703;SDS011;335;48.694;9.120;2022-10-16T03:27:41;7.30;;;1.37;;
703;SDS011;335;48.694;9.120;2022-10-16T03:30:06;1.93;;;1.27;;
703;SDS011;335;48.694;9.120;2022-10-16T03:32:32;1.10;;;1.00;;
703;SDS011;335;48.694;9.120;2022-10-16T03:34:57;1.73;;;1.40;;
703;SDS011;335;48.694;9.120;2022-10-16T03:37:23;1.70;;;1.60;;
703;SDS011;335;48.694;9.120;2022-10-16T03:39:48;1.67;;;1.40;;
703;SDS011;335;48.694;9.120;2022-10-16T03:42:13;3.90;;;1.50;;
703;SDS011;335;48.694;9.120;2022-10-16T03:44:39;1.30;;;1.10;;
703;SDS011;335;48.694;9.120;2022-10-16T03:47:04;1.53;;;1.43;;
703;SDS011;335;48.694;9.120;2022-10-16T03:49:29;3.20;;;2.07;;
703;SDS011;335;48.694;9.120;2022-10-16T03:51:55;2.20;;;2.00;;
703;SDS011;335;48.694;9.120;2022-10-16T03:54:20;1.80;;;1.70;;
703;SDS011;335;48.694;9.120;2022-10-16T03:56:47;1.43;;;1.07;;
703;SDS011;335;48.694;9.120;2022-10-16T03:59:12;1.00;;;1.00;;
703;SDS011;335;48.694;9.120;2022-10-16T04:01:37;2.53;;;1.40;;
703;SDS011;335;48.694;9.120;2022-10-16T04:04:03;1.57;;;1.20;;
703;SDS011;335;48.694;9.120;2022-10-16T04:06:28;1.23;;;1.13;;
703;SDS011;335;48.694;9.120;2022-10-16T04:08:53;3.23;;;1.33;;
703;SDS011;335;48.694;9.120;2022-10-16T04:11:19;4.77;;;2.27;;
703;SDS011;335;48.694;9.120;2022-10-16T04:13:44;1.60;;;1.23;;
703;SDS011;335;48.694;9.120;2022-10-16T04:16:09;4.00;;;1.37;;
703;SDS011;335;48.694;9.120;2022-10-16T04:18:35;1.87;;;1.77;;
703;SDS011;335;48.694;9.120;2022-10-16T04:21:04;1.33;;;1.33;;
703;SDS011;335;48.694;9.120;2022-10-16T04:23:30;1.80;;;1.70;;
703;SDS011;335;48.694;9.120;2022-10-16T04:25:56;2.23;;;2.13;;
703;SDS011;335;48.694;9.120;2022-10-16T04:28:21;1.80;;;1.70;;
703;SDS011;335;48.694;9.120;2022-10-16T04:30:46;2.37;;;2.17;;
703;SDS011;335;48.694;9.120;2022-10-16T04:33:12;3.90;;;1.97;;
703;SDS011;335;48.694;9.120;2022-10-16T04:35:38;2.50;;;2.40;;
703;SDS011;335;48.694;9.120;2022-10-16T04:38:03;2.20;;;1.50;;
703;SDS011;335;48.694;9.120;2022-10-16T04:40:28;1.53;;;1.43;;
703;SDS011;335;48.694;9.120;2022-10-16T04:42:57;2.57;;;1.60;;
703;SDS011;335;48.694;9.120;2022-10-16T04:45:23;1.30;;;1.20;;
703;SDS011;335;48.694;9.120;2022-10-16T04:47:48;4.07;;;1.80;;
703;SDS011;335;48.694;9.120;2022-10-16T04:50:13;2.33;;;1.80;;
703;SDS011;335;48.694;9.120;2022-10-16T04:52:39;6.57;;;1.83;;
703;SDS011;335;48.694;9.120;2022-10-16T04:55:04;1.60;;;1.27;;
703;SDS011;335;48.694;9.120;2022-10-16T04:57:30;2.10;;;1.43;;
703;SDS011;335;48.694;9.120;2022-10-16T04:59:56;1.40;;;1.30;;
703;SDS011;335;48.694;9.120;2022-10-16T05:02:21;1.83;;;1.73;;
703;SDS011;335;48.694;9.120;2022-10-16T05:04:46;1.73;;;1.63;;
703;SDS011;335;48.694;9.120;2022-10-16T05:07:12;1.63;;;1.53;;
703;SDS011;335;48.694;9.120;2022-10-16T05:09:37;1.77;;;1.67;;
703;SDS011;335;48.694;9.120;2022-10-16T05:12:03;1.47;;;1.37;;
703;SDS011;335;48.694;9.120;2022-10-16T05:14:29;5.23;;;1.50;;
703;SDS011;335;48.694;9.120;2022-10-16T05:16:54;1.30;;;1.30;;
703;SDS011;335;48.694;9.120;2022-10-16T05:19:19;4.43;;;1.70;;
703;SDS011;335;48.694;9.120;2022-10-16T05:21:45;1.57;;;1.47;;
703;SDS011;335;48.694;9.120;2022-10-16T05:24:10;1.73;;;1.53;;
703;SDS011;335;48.694;9.120;2022-10-16T05:26:35;2.83;;;1.30;;
703;SDS011;335;48.694;9.120;2022-10-16T05:29:01;2.70;;;1.40;;
703;SDS011;335;48.694;9.120;2022-10-16T05:31:26;2.50;;;1.50;;
703;SDS011;335;48.694;9.120;2022-10-16T05:33:51;2.20;;;1.20;;
703;SDS011;335;48.694;9.120;2022-10-16T05:36:17;2.83;;;1.30;;
703;SDS011;335;48.694;9.120;2022-10-16T05:38:43;1.50;;;1.10;;
703;SDS011;335;48.694;9.120;2022-10-16T05:41:08;5.20;;;1.77;;
703;SDS011;335;48.694;9.120;2022-10-16T05:43:34;1.40;;;1.30;;
703;SDS011;335;48.694;9.120;2022-10-16T05:46:00;1.07;;;1.07;;
703;SDS011;335;48.694;9.120;2022-10-16T05:48:27;1.93;;;1.67;;
703;SDS011;335;48.694;9.120;2022-10-16T05:50:56;2.20;;;1.40;;
703;SDS011;335;48.694;9.120;2022-10-16T05:53:25;10.50;;;2.57;;
703;SDS011;335;48.694;9.120;2022-10-16T05:55:54;2.00;;;1.90;;
703;SDS011;335;48.694;9.120;2022-10-16T05:58:20;1.20;;;1.20;;
703;SDS011;335;48.694;9.120;2022-10-16T06:00:52;1.60;;;1.50;;
703;SDS011;335;48.694;9.120;2022-10-16T06:03:21;1.50;;;1.40;;
703;SDS011;335;48.694;9.120;2022-10-16T06:05:46;1.60;;;1.50;;
703;SDS011;335;48.694;9.120;2022-10-16T06:08:12;2.20;;;1.63;;
703;SDS011;335;48.694;9.120;2022-10-16T06:10:37;1.70;;;1.60;;
703;SDS011;335;48.694;9.120;2022-10-16T06:13:03;1.30;;;1.30;;
703;SDS011;335;48.694;9.120;2022-10-16T06:15:28;1.83;;;1.50;;
703;SDS011;335;48.694;9.120;2022-10-16T06:17:54;1.30;;;1.30;;
703;SDS011;335;48.694;9.120;2022-10-16T06:20:19;1.40;;;1.30;;
703;SDS011;335;48.694;9.120;2022-10-16T06:22:44;1.30;;;1.20;;
703;SDS011;335;48.694;9.120;2022-10-16T06:25:10;1.93;;;1.40;;
703;SDS011;335;48.694;9.120;2022-10-16T06:27:35;1.70;;;1.60;;
703;SDS011;335;48.694;9.120;2022-10-16T06:30:00;1.80;;;1.50;;
703;SDS011;335;48.694;9.120;2022-10-16T06:32:26;1.00;;;1.00;;
703;SDS011;335;48.694;9.120;2022-10-16T06:34:52;1.50;;;1.50;;
703;SDS011;335;48.694;9.120;2022-10-16T06:37:17;3.10;;;1.27;;
703;SDS011;335;48.694;9.120;2022-10-16T06:39:43;1.60;;;1.10;;
703;SDS011;335;48.694;9.120;2022-10-16T06:42:08;2.03;;;1.30;;
703;SDS011;335;48.694;9.120;2022-10-16T06:44:33;5.17;;;1.73;;
703;SDS011;335;48.694;9.120;2022-10-16T06:46:59;1.93;;;1.53;;
703;SDS011;335;48.694;9.120;2022-10-16T06:49:24;1.70;;;1.60;;
703;SDS011;335;48.694;9.120;2022-10-16T06:51:49;1.93;;;1.30;;
703;SDS011;335;48.694;9.120;2022-10-16T06:54:15;2.47;;;1.27;;
703;SDS011;335;48.694;9.120;2022-10-16T06:56:41;1.33;;;1.23;;
703;SDS011;335;48.694;9.120;2022-10-16T06:59:06;2.00;;;1.43;;
703;SDS011;335;48.694;9.120;2022-10-16T07:01:32;1.80;;;1.37;;
703;SDS011;335;48.694;9.120;2022-10-16T07:03:58;1.30;;;1.20;;
703;SDS011;335;48.694;9.120;2022-10-16T07:06:24;3.50;;;1.47;;
703;SDS011;335;48.694;9.120;2022-10-16T07:08:50;5.67;;;1.40;;
703;SDS011;335;48.694;9.120;2022-10-16T07:11:17;4.73;;;1.97;;
703;SDS011;335;48.694;9.120;2022-10-16T07:13:46;2.60;;;1.40;;
703;SDS011;335;48.694;9.120;2022-10-16T07:16:12;2.30;;;1.60;;
703;SDS011;335;48.694;9.120;2022-10-16T07:18:39;2.30;;;1.60;;
703;SDS011;335;48.694;9.120;2022-10-16T07:23:31;2.00;;;1.90;;
703;SDS011;335;48.694;9.120;2022-10-16T07:25:56;4.43;;;2.07;;
703;SDS011;335;48.694;9.120;2022-10-16T07:28:22;1.77;;;1.60;;
703;SDS011;335;48.694;9.120;2022-10-16T07:30:47;0.90;;;0.80;;
703;SDS011;335;48.694;9.120;2022-10-16T07:33:13;1.17;;;1.07;;
703;SDS011;335;48.694;9.120;2022-10-16T07:35:46;1.10;;;1.10;;
703;SDS011;335;48.694;9.120;2022-10-16T07:38:21;1.50;;;1.40;;
703;SDS011;335;48.694;9.120;2022-10-16T07:40:47;2.93;;;1.40;;
703;SDS011;335;48.694;9.120;2022-10-16T07:43:12;1.50;;;1.40;;
703;SDS011;335;48.694;9.120;2022-10-16T07:45:46;3.10;;;1.20;;
703;SDS011;335;48.694;9.120;2022-10-16T07:48:15;1.20;;;1.20;;
703;SDS011;335;48.694;9.120;2022-10-16T07:50:40;3.10;;;1.40;;
703;SDS011;335;48.694;9.120;2022-10-16T07:53:06;1.20;;;1.10;;
703;SDS011;335;48.694;9.120;2022-10-16T07:55:31;1.20;;;1.10;;
703;SDS011;335;48.694;9.120;2022-10-16T07:57:57;1.87;;;1.50;;
703;SDS011;335;48.694;9.120;2022-10-16T08:00:22;1.30;;;1.20;;
703;SDS011;335;48.694;9.120;2022-10-16T08:02:48;1.50;;;1.40;;
703;SDS011;335;48.694;9.120;2022-10-16T08:05:13;1.30;;;1.20;;
703;SDS011;335;48.694;9.120;2022-10-16T08:07:38;2.00;;;1.00;;
703;SDS011;335;48.694;9.120;2022-10-16T08:10:04;4.20;;;1.53;;
703;SDS011;335;48.694;9.120;2022-10-16T08:12:30;1.53;;;1.30;;
703;SDS011;335;48.694;9.120;2022-10-16T08:14:55;2.27;;;1.00;;
703;SDS011;335;48.694;9.120;2022-10-16T08:17:20;2.10;;;1.10;;
703;SDS011;335;48.694;9.120;2022-10-16T08:19:46;2.20;;;1.27;;
703;SDS011;335;48.694;9.120;2022-10-16T08:22:12;1.30;;;1.30;;
703;SDS011;335;48.694;9.120;2022-10-16T08:24:40;1.70;;;1.60;;
703;SDS011;335;48.694;9.120;2022-10-16T08:27:06;3.70;;;1.47;;
703;SDS011;335;48.694;9.120;2022-10-16T08:29:31;1.43;;;1.07;;
703;SDS011;335;48.694;9.120;2022-10-16T08:31:57;1.20;;;1.10;;
703;SDS011;335;48.694;9.120;2022-10-16T08:34:22;1.47;;;1.07;;
703;SDS011;335;48.694;9.120;2022-10-16T08:36:48;1.23;;;1.13;;
703;SDS011;335;48.694;9.120;2022-10-16T08:39:13;1.73;;;1.10;;
703;SDS011;335;48.694;9.120;2022-10-16T08:41:56;1.10;;;1.10;;
703;SDS011;335;48.694;9.120;2022-10-16T08:44:28;1.63;;;1.17;;
703;SDS011;335;48.694;9.120;2022-10-16T08:49:40;1.00;;;1.00;;
703;SDS011;335;48.694;9.120;2022-10-16T08:52:10;2.27;;;1.13;;
703;SDS011;335;48.694;9.120;2022-10-16T08:54:46;4.23;;;1.20;;
703;SDS011;335;48.694;9.120;2022-10-16T08:57:21;1.40;;;1.30;;
703;SDS011;335;48.694;9.120;2022-10-16T08:59:47;1.47;;;1.37;;
703;SDS011;335;48.694;9.120;2022-10-16T09:02:22;1.33;;;0.87;;
703;SDS011;335;48.694;9.120;2022-10-16T09:08:18;1.90;;;1.10;;
703;SDS011;335;48.694;9.120;2022-10-16T09:10:57;1.30;;;1.20;;
703;SDS011;335;48.694;9.120;2022-10-16T09:13:59;1.40;;;1.30;;
703;SDS011;335;48.694;9.120;2022-10-16T09:16:30;1.40;;;1.30;;
703;SDS011;335;48.694;9.120;2022-10-16T09:19:14;3.07;;;1.67;;
703;SDS011;335;48.694;9.120;2022-10-16T09:21:43;1.03;;;1.00;;
703;SDS011;335;48.694;9.120;2022-10-16T09:24:10;2.90;;;1.20;;
703;SDS011;335;48.694;9.120;2022-10-16T09:26:38;1.40;;;1.30;;
703;SDS011;335;48.694;9.120;2022-10-16T09:29:03;1.53;;;1.43;;
703;SDS011;335;48.694;9.120;2022-10-16T09:31:28;0.80;;;0.80;;
703;SDS011;335;48.694;9.120;2022-10-16T09:33:55;3.50;;;1.20;;
703;SDS011;335;48.694;9.120;2022-10-16T09:36:23;0.80;;;0.80;;
703;SDS011;335;48.694;9.120;2022-10-16T09:39:00;0.60;;;0.60;;
703;SDS011;335;48.694;9.120;2022-10-16T09:41:27;2.30;;;1.10;;
703;SDS011;335;48.694;9.120;2022-10-16T09:43:54;1.03;;;0.80;;
703;SDS011;335;48.694;9.120;2022-10-16T09:46:22;0.90;;;0.73;;
703;SDS011;335;48.694;9.120;2022-10-16T09:48:50;1.87;;;1.07;;
703;SDS011;335;48.694;9.120;2022-10-16T09:51:25;1.43;;;0.90;;
703;SDS011;335;48.694;9.120;2022-10-16T09:53:59;2.20;;;0.90;;
703;SDS011;335;48.694;9.120;2022-10-16T09:56:29;2.00;;;0.70;;
703;SDS011;335;48.694;9.120;2022-10-16T09:58:58;2.60;;;1.20;;
703;SDS011;335;48.694;9.120;2022-10-16T10:01:28;4.43;;;1.23;;
703;SDS011;335;48.694;9.120;2022-10-16T10:03:57;1.23;;;0.90;;
703;SDS011;335;48.694;9.120;2022-10-16T10:06:31;1.43;;;0.90;;
703;SDS011;335;48.694;9.120;2022-10-16T10:09:03;1.40;;;0.80;;
703;SDS011;335;48.694;9.120;2022-10-16T10:14:18;1.60;;;1.00;;
703;SDS011;335;48.694;9.120;2022-10-16T10:16:47;3.73;;;0.80;;
703;SDS011;335;48.694;9.120;2022-10-16T10:19:14;1.17;;;0.83;;
703;SDS011;335;48.694;9.120;2022-10-16T10:21:40;1.13;;;0.90;;
703;SDS011;335;48.694;9.120;2022-10-16T10:24:09;2.03;;;0.90;;
703;SDS011;335;48.694;9.120;2022-10-16T10:26:35;4.97;;;0.80;;
703;SDS011;335;48.694;9.120;2022-10-16T10:31:51;0.90;;;0.90;;
703;SDS011;335;48.694;9.120;2022-10-16T10:43:08;1.67;;;1.60;;
703;SDS011;335;48.694;9.120;2022-10-16T10:45:43;1.80;;;1.70;;
703;SDS011;335;48.694;9.120;2022-10-16T10:50:48;1.60;;;1.60;;
703;SDS011;335;48.694;9.120;2022-10-16T10:56:25;1.10;;;0.90;;
703;SDS011;335;48.694;9.120;2022-10-16T11:01:55;1.00;;;0.90;;
703;SDS011;335;48.694;9.120;2022-10-16T11:04:38;0.87;;;0.83;;
703;SDS011;335;48.694;9.120;2022-10-16T11:07:36;1.67;;;1.00;;
703;SDS011;335;48.694;9.120;2022-10-16T11:10:09;1.00;;;0.90;;
703;SDS011;335;48.694;9.120;2022-10-16T11:12:40;2.93;;;1.00;;
703;SDS011;335;48.694;9.120;2022-10-16T11:15:14;3.10;;;1.10;;
703;SDS011;335;48.694;9.120;2022-10-16T11:20:26;1.60;;;1.60;;
703;SDS011;335;48.694;9.120;2022-10-16T11:22:54;1.60;;;1.50;;
703;SDS011;335;48.694;9.120;2022-10-16T11:25:23;1.80;;;1.70;;
703;SDS011;335;48.694;9.120;2022-10-16T11:30:34;1.83;;;1.73;;
703;SDS011;335;48.694;9.120;2022-10-16T11:41:01;2.00;;;1.70;;
703;SDS011;335;48.694;9.120;2022-10-16T11:43:37;1.93;;;1.80;;
703;SDS011;335;48.694;9.120;2022-10-16T11:46:12;2.07;;;1.20;;
703;SDS011;335;48.694;9.120;2022-10-16T11:52:30;1.50;;;0.93;;
703;SDS011;335;48.694;9.120;2022-10-16T11:57:47;2.77;;;1.43;;
703;SDS011;335;48.694;9.120;2022-10-16T12:00:21;0.90;;;0.80;;
703;SDS011;335;48.694;9.120;2022-10-16T12:02:54;3.63;;;0.90;;
703;SDS011;335;48.694;9.120;2022-10-16T12:08:28;1.97;;;0.87;;
703;SDS011;335;48.694;9.120;2022-10-16T12:10:53;0.90;;;0.90;;
703;SDS011;335;48.694;9.120;2022-10-16T12:18:37;1.47;;;0.90;;
703;SDS011;335;48.694;9.120;2022-10-16T12:21:03;1.00;;;0.90;;
703;SDS011;335;48.694;9.120;2022-10-16T12:23:54;1.73;;;1.17;;
703;SDS011;335;48.694;9.120;2022-10-16T12:26:25;8.27;;;0.87;;
703;SDS011;335;48.694;9.120;2022-10-16T12:28:52;1.17;;;1.10;;
703;SDS011;335;48.694;9.120;2022-10-16T12:31:17;0.80;;;0.80;;
703;SDS011;335;48.694;9.120;2022-10-16T12:33:52;1.07;;;0.87;;
703;SDS011;335;48.694;9.120;2022-10-16T12:36:32;1.90;;;0.80;;
703;SDS011;335;48.694;9.120;2022-10-16T12:38:58;1.50;;;1.40;;
703;SDS011;335;48.694;9.120;2022-10-16T12:41:28;0.90;;;0.80;;
703;SDS011;335;48.694;9.120;2022-10-16T12:43:58;1.60;;;1.13;;
703;SDS011;335;48.694;9.120;2022-10-16T12:49:05;1.20;;;1.20;;
703;SDS011;335;48.694;9.120;2022-10-16T12:54:19;1.13;;;1.07;;
703;SDS011;335;48.694;9.120;2022-10-16T13:07:51;2.00;;;1.90;;
703;SDS011;335;48.694;9.120;2022-10-16T13:12:57;2.50;;;2.30;;
703;SDS011;335;48.694;9.120;2022-10-16T13:18:44;1.33;;;1.33;;
703;SDS011;335;48.694;9.120;2022-10-16T13:21:20;1.53;;;1.37;;
703;SDS011;335;48.694;9.120;2022-10-16T13:29:30;1.80;;;1.70;;
703;SDS011;335;48.694;9.120;2022-10-16T13:31:56;1.70;;;1.60;;
703;SDS011;335;48.694;9.120;2022-10-16T13:34:23;1.80;;;1.70;;
703;SDS011;335;48.694;9.120;2022-10-16T13:36:49;2.23;;;1.90;;
703;SDS011;335;48.694;9.120;2022-10-16T13:39:29;1.67;;;1.67;;
703;SDS011;335;48.694;9.120;2022-10-16T13:42:10;1.50;;;1.40;;
703;SDS011;335;48.694;9.120;2022-10-16T13:44:48;1.90;;;1.80;;
703;SDS011;335;48.694;9.120;2022-10-16T13:47:19;1.70;;;1.70;;
703;SDS011;335;48.694;9.120;2022-10-16T13:49:45;1.80;;;1.70;;
703;SDS011;335;48.694;9.120;2022-10-16T13:52:15;1.50;;;1.50;;
703;SDS011;335;48.694;9.120;2022-10-16T13:54:42;1.70;;;1.60;;
703;SDS011;335;48.694;9.120;2022-10-16T13:57:08;1.60;;;1.60;;
703;SDS011;335;48.694;9.120;2022-10-16T13:59:34;1.83;;;1.73;;
703;SDS011;335;48.694;9.120;2022-10-16T14:02:00;1.40;;;1.40;;
703;SDS011;335;48.694;9.120;2022-10-16T14:04:33;1.70;;;1.60;;
703;SDS011;335;48.694;9.120;2022-10-16T14:07:04;1.53;;;1.53;;
703;SDS011;335;48.694;9.120;2022-10-16T14:09:30;1.50;;;1.50;;
703;SDS011;335;48.694;9.120;2022-10-16T14:11:57;1.53;;;1.43;;
703;SDS011;335;48.694;9.120;2022-10-16T14:14:26;1.63;;;1.63;;
703;SDS011;335;48.694;9.120;2022-10-16T14:16:52;1.50;;;1.50;;
703;SDS011;335;48.694;9.120;2022-10-16T14:19:21;1.27;;;1.27;;
703;SDS011;335;48.694;9.120;2022-10-16T14:21:52;2.43;;;2.23;;
703;SDS011;335;48.694;9.120;2022-10-16T14:26:52;2.43;;;1.73;;
703;SDS011;335;48.694;9.120;2022-10-16T14:29:21;1.63;;;1.57;;
703;SDS011;335;48.694;9.120;2022-10-16T14:34:35;1.30;;;1.30;;
703;SDS011;335;48.694;9.120;2022-10-16T14:37:21;2.67;;;1.60;;
703;SDS011;335;48.694;9.120;2022-10-16T14:39:49;1.67;;;1.67;;
703;SDS011;335;48.694;9.120;2022-10-16T14:42:16;2.90;;;2.17;;
703;SDS011;335;48.694;9.120;2022-10-16T14:44:43;1.83;;;1.73;;
703;SDS011;335;48.694;9.120;2022-10-16T14:47:09;2.00;;;1.90;;
703;SDS011;335;48.694;9.120;2022-10-16T14:49:38;1.77;;;1.67;;
703;SDS011;335;48.694;9.120;2022-10-16T14:52:13;1.87;;;1.80;;
703;SDS011;335;48.694;9.120;2022-10-16T14:54:39;1.50;;;1.50;;
703;SDS011;335;48.694;9.120;2022-10-16T14:57:05;2.30;;;2.20;;
703;SDS011;335;48.694;9.120;2022-10-16T14:59:32;2.20;;;2.00;;
703;SDS011;335;48.694;9.120;2022-10-16T15:02:00;2.03;;;1.93;;
703;SDS011;335;48.694;9.120;2022-10-16T15:04:47;1.60;;;1.50;;
703;SDS011;335;48.694;9.120;2022-10-16T15:07:13;2.00;;;1.90;;
703;SDS011;335;48.694;9.120;2022-10-16T15:09:38;1.90;;;1.80;;
703;SDS011;335;48.694;9.120;2022-10-16T15:12:03;2.30;;;2.10;;
703;SDS011;335;48.694;9.120;2022-10-16T15:14:29;2.07;;;1.97;;
703;SDS011;335;48.694;9.120;2022-10-16T15:16:54;2.17;;;2.03;;
703;SDS011;335;48.694;9.120;2022-10-16T15:19:19;2.50;;;1.90;;
703;SDS011;335;48.694;9.120;2022-10-16T15:21:45;4.73;;;2.20;;
703;SDS011;335;48.694;9.120;2022-10-16T15:24:11;1.70;;;1.70;;
703;SDS011;335;48.694;9.120;2022-10-16T15:26:37;1.90;;;1.80;;
703;SDS011;335;48.694;9.120;2022-10-16T15:29:03;1.87;;;1.77;;
703;SDS011;335;48.694;9.120;2022-10-16T15:31:28;3.10;;;1.90;;
703;SDS011;335;48.694;9.120;2022-10-16T15:33:54;2.50;;;1.60;;
703;SDS011;335;48.694;9.120;2022-10-16T15:36:32;1.93;;;1.83;;
703;SDS011;335;48.694;9.120;2022-10-16T15:39:01;1.80;;;1.70;;
703;SDS011;335;48.694;9.120;2022-10-16T15:41:26;1.70;;;1.60;;
703;SDS011;335;48.694;9.120;2022-10-16T15:43:51;1.40;;;1.30;;
703;SDS011;335;48.694;9.120;2022-10-16T15:46:21;1.50;;;1.40;;
703;SDS011;335;48.694;9.120;2022-10-16T15:48:47;1.37;;;1.07;;
703;SDS011;335;48.694;9.120;2022-10-16T15:51:13;2.60;;;1.67;;
703;SDS011;335;48.694;9.120;2022-10-16T15:53:39;1.80;;;1.70;;
703;SDS011;335;48.694;9.120;2022-10-16T15:56:05;1.23;;;1.20;;
703;SDS011;335;48.694;9.120;2022-10-16T15:58:32;2.07;;;1.97;;
703;SDS011;335;48.694;9.120;2022-10-16T16:00:58;1.70;;;1.60;;
703;SDS011;335;48.694;9.120;2022-10-16T16:03:26;1.93;;;1.60;;
703;SDS011;335;48.694;9.120;2022-10-16T16:05:52;1.70;;;1.60;;
703;SDS011;335;48.694;9.120;2022-10-16T16:08:17;1.80;;;1.70;;
703;SDS011;335;48.694;9.120;2022-10-16T16:10:43;1.70;;;1.70;;
703;SDS011;335;48.694;9.120;2022-10-16T16:13:08;1.73;;;1.47;;
703;SDS011;335;48.694;9.120;2022-10-16T16:15:33;3.07;;;2.70;;
703;SDS011;335;48.694;9.120;2022-10-16T16:17:59;6.70;;;4.90;;
703;SDS011;335;48.694;9.120;2022-10-16T16:20:26;5.97;;;4.40;;
703;SDS011;335;48.694;9.120;2022-10-16T16:22:52;4.40;;;3.90;;
703;SDS011;335;48.694;9.120;2022-10-16T16:25:17;7.10;;;3.40;;
703;SDS011;335;48.694;9.120;2022-10-16T16:27:43;4.57;;;3.20;;
703;SDS011;335;48.694;9.120;2022-10-16T16:30:10;9.20;;;3.03;;
703;SDS011;335;48.694;9.120;2022-10-16T16:32:36;4.27;;;2.70;;
703;SDS011;335;48.694;9.120;2022-10-16T16:35:02;7.13;;;2.80;;
703;SDS011;335;48.694;9.120;2022-10-16T16:37:28;6.30;;;3.00;;
703;SDS011;335;48.694;9.120;2022-10-16T16:39:53;5.40;;;3.03;;
703;SDS011;335;48.694;9.120;2022-10-16T16:42:20;6.17;;;3.70;;
703;SDS011;335;48.694;9.120;2022-10-16T16:44:47;4.00;;;3.67;;
703;SDS011;335;48.694;9.120;2022-10-16T16:47:12;3.70;;;3.40;;
703;SDS011;335;48.694;9.120;2022-10-16T16:49:38;5.87;;;3.43;;
703;SDS011;335;48.694;9.120;2022-10-16T16:52:05;8.63;;;3.50;;
703;SDS011;335;48.694;9.120;2022-10-16T16:54:30;9.80;;;3.40;;
703;SDS011;335;48.694;9.120;2022-10-16T16:56:55;3.30;;;3.10;;
703;SDS011;335;48.694;9.120;2022-10-16T16:59:21;5.50;;;3.77;;
703;SDS011;335;48.694;9.120;2022-10-16T17:01:47;4.10;;;3.70;;
703;SDS011;335;48.694;9.120;2022-10-16T17:04:12;12.90;;;8.80;;
703;SDS011;335;48.694;9.120;2022-10-16T17:06:40;13.33;;;7.07;;
703;SDS011;335;48.694;9.120;2022-10-16T17:09:05;4.80;;;4.43;;
703;SDS011;335;48.694;9.120;2022-10-16T17:11:31;3.70;;;3.40;;
703;SDS011;335;48.694;9.120;2022-10-16T17:13:57;3.57;;;3.13;;
703;SDS011;335;48.694;9.120;2022-10-16T17:16:27;6.07;;;3.97;;
703;SDS011;335;48.694;9.120;2022-10-16T17:18:55;5.40;;;3.30;;
703;SDS011;335;48.694;9.120;2022-10-16T17:21:24;2.53;;;2.33;;
703;SDS011;335;48.694;9.120;2022-10-16T17:23:51;4.43;;;3.37;;
703;SDS011;335;48.694;9.120;2022-10-16T17:26:17;3.07;;;2.80;;
703;SDS011;335;48.694;9.120;2022-10-16T17:28:43;7.17;;;4.00;;
703;SDS011;335;48.694;9.120;2022-10-16T17:31:13;8.33;;;4.93;;
703;SDS011;335;48.694;9.120;2022-10-16T17:33:40;5.27;;;4.80;;
703;SDS011;335;48.694;9.120;2022-10-16T17:36:07;4.40;;;4.10;;
703;SDS011;335;48.694;9.120;2022-10-16T17:38:33;10.27;;;4.73;;